createdAt,value
2022-09-14T00:00:25.318Z,15.60
2022-09-14T00:03:22.389Z,15.82
2022-09-14T00:06:19.606Z,15.85
2022-09-14T00:09:21.545Z,15.49
2022-09-14T00:12:18.753Z,15.23
2022-09-14T00:15:16.514Z,15.29
2022-09-14T00:18:13.553Z,15.85
2022-09-14T00:21:11.203Z,16.17
2022-09-14T00:24:08.494Z,16.17
2022-09-14T00:27:05.251Z,16.09
2022-09-14T00:30:02.280Z,16.22
2022-09-14T00:32:59.313Z,16.29
2022-09-14T00:35:56.492Z,16.13
2022-09-14T00:38:56.698Z,15.77
2022-09-14T00:41:54.458Z,16.26
2022-09-14T00:44:51.182Z,16.34
2022-09-14T00:47:50.000Z,16.82
2022-09-14T00:50:47.637Z,16.81
2022-09-14T00:53:44.815Z,16.40
2022-09-14T00:56:42.336Z,16.16
2022-09-14T00:59:40.705Z,16.00
2022-09-14T01:02:39.446Z,15.62
2022-09-14T01:05:48.034Z,15.82
2022-09-14T01:08:57.238Z,15.82
2022-09-14T01:12:03.088Z,15.79
2022-09-14T01:15:08.127Z,15.53
2022-09-14T01:18:28.515Z,15.55
2022-09-14T01:21:28.540Z,15.86
2022-09-14T01:24:47.812Z,16.13
2022-09-14T01:27:45.235Z,15.93
2022-09-14T01:30:42.105Z,15.59
2022-09-14T01:33:47.062Z,15.43
2022-09-14T01:36:46.274Z,15.28
2022-09-14T01:39:45.930Z,15.37
2022-09-14T01:42:43.391Z,15.35
2022-09-14T01:45:42.350Z,15.14
2022-09-14T01:48:54.658Z,15.45
2022-09-14T01:51:56.328Z,15.57
2022-09-14T01:54:57.265Z,15.94
2022-09-14T01:58:18.643Z,15.98
2022-09-14T02:01:19.234Z,15.74
2022-09-14T02:04:19.533Z,15.39
2022-09-14T02:07:16.523Z,15.09
2022-09-14T02:10:13.704Z,15.18
2022-09-14T02:13:10.920Z,15.19
2022-09-14T02:16:08.771Z,14.97
2022-09-14T02:19:06.423Z,15.03
2022-09-14T02:22:03.701Z,15.16
2022-09-14T02:25:00.404Z,15.16
2022-09-14T02:27:57.127Z,15.40
2022-09-14T02:31:13.050Z,15.53
2022-09-14T02:34:25.284Z,15.17
2022-09-14T02:37:31.369Z,14.82
2022-09-14T02:40:34.176Z,14.63
2022-09-14T02:44:05.012Z,14.65
2022-09-14T02:47:20.534Z,14.59
2022-09-14T02:50:54.946Z,14.87
2022-09-14T02:53:54.425Z,15.68
2022-09-14T02:56:51.528Z,15.65
2022-09-14T02:59:48.547Z,15.56
2022-09-14T03:02:45.766Z,15.29
2022-09-14T03:05:42.700Z,15.23
2022-09-14T03:08:39.545Z,14.86
2022-09-14T03:11:36.848Z,14.56
2022-09-14T03:14:34.006Z,14.64
2022-09-14T03:17:31.248Z,14.70
2022-09-14T03:20:29.645Z,14.76
2022-09-14T03:23:26.431Z,15.40
2022-09-14T03:26:24.245Z,15.69
2022-09-14T03:29:21.317Z,15.76
2022-09-14T03:32:18.172Z,15.44
2022-09-14T03:35:15.980Z,15.30
2022-09-14T03:38:13.450Z,15.18
2022-09-14T03:41:10.746Z,15.31
2022-09-14T03:44:07.747Z,15.45
2022-09-14T03:47:04.626Z,15.26
2022-09-14T03:50:01.721Z,15.04
2022-09-14T03:52:58.445Z,15.05
2022-09-14T03:55:55.374Z,14.95
2022-09-14T03:58:52.214Z,14.82
2022-09-14T04:01:49.959Z,14.57
2022-09-14T04:04:48.337Z,14.52
2022-09-14T04:07:45.583Z,14.80
2022-09-14T04:10:42.972Z,14.79
2022-09-14T04:13:40.815Z,14.58
2022-09-14T04:16:39.115Z,15.14
2022-09-14T04:19:39.765Z,15.54
2022-09-14T04:22:36.546Z,15.43
2022-09-14T04:25:33.580Z,15.04
2022-09-14T04:28:30.669Z,14.64
2022-09-14T04:31:27.544Z,14.45
2022-09-14T04:34:24.506Z,14.59
2022-09-14T04:37:21.741Z,14.68
2022-09-14T04:40:18.965Z,14.65
2022-09-14T04:43:16.658Z,14.85
2022-09-14T04:46:15.251Z,14.91
2022-09-14T04:49:13.376Z,14.80
2022-09-14T04:52:10.468Z,14.93
2022-09-14T04:55:08.161Z,14.81
2022-09-14T04:58:05.487Z,14.82
2022-09-14T05:01:08.762Z,15.09
2022-09-14T05:04:05.706Z,14.76
2022-09-14T05:07:02.344Z,14.34
2022-09-14T05:09:59.482Z,14.28
2022-09-14T05:12:56.299Z,14.90
2022-09-14T05:15:54.160Z,14.97
2022-09-14T05:18:51.882Z,15.13
2022-09-14T05:21:49.964Z,15.29
2022-09-14T05:24:47.380Z,15.61
2022-09-14T05:27:44.966Z,15.51
2022-09-14T05:30:42.551Z,15.36
2022-09-14T05:33:39.567Z,15.31
2022-09-14T05:36:37.626Z,14.92
2022-09-14T05:39:34.758Z,14.91
2022-09-14T05:42:31.892Z,15.03
2022-09-14T05:45:28.822Z,15.03
2022-09-14T05:48:25.880Z,14.93
2022-09-14T05:51:23.990Z,14.73
2022-09-14T05:54:21.753Z,14.73
2022-09-14T05:57:18.614Z,14.85
2022-09-14T06:00:16.230Z,15.06
2022-09-14T06:03:13.407Z,14.99
2022-09-14T06:06:12.510Z,14.95
2022-09-14T06:09:09.769Z,14.87
2022-09-14T06:12:06.640Z,14.75
2022-09-14T06:15:04.048Z,14.68
2022-09-14T06:18:01.938Z,14.70
2022-09-14T06:20:59.979Z,14.66
2022-09-14T06:23:56.938Z,14.59
2022-09-14T06:26:54.839Z,14.49
2022-09-14T06:29:53.899Z,14.59
2022-09-14T06:32:50.644Z,14.67
2022-09-14T06:36:12.355Z,14.67
2022-09-14T06:39:09.873Z,14.69
2022-09-14T06:42:07.431Z,14.90
2022-09-14T06:45:09.023Z,15.06
2022-09-14T06:48:06.742Z,15.14
2022-09-14T06:51:14.953Z,15.17
2022-09-14T06:54:12.535Z,15.25
2022-09-14T06:57:09.651Z,15.25
2022-09-14T07:00:07.739Z,15.71
2022-09-14T07:03:04.537Z,16.13
2022-09-14T07:06:09.029Z,16.60
2022-09-14T07:09:06.587Z,16.78
2022-09-14T07:12:04.108Z,16.80
2022-09-14T07:15:01.668Z,16.67
2022-09-14T07:17:59.029Z,16.92
2022-09-14T07:20:56.991Z,17.08
2022-09-14T07:23:55.766Z,17.19
2022-09-14T07:26:52.838Z,17.27
2022-09-14T07:29:49.941Z,17.34
2022-09-14T07:32:46.934Z,17.33
2022-09-14T07:35:44.488Z,17.45
2022-09-14T07:38:52.089Z,17.62
2022-09-14T07:41:50.875Z,17.57
2022-09-14T07:44:47.477Z,17.68
2022-09-14T07:47:44.761Z,17.72
2022-09-14T07:50:42.070Z,17.73
2022-09-14T07:53:42.660Z,17.77
2022-09-14T07:56:40.031Z,17.73
2022-09-14T07:59:38.388Z,17.83
2022-09-14T08:02:36.116Z,17.90
2022-09-14T08:05:33.793Z,17.87
2022-09-14T08:08:31.763Z,17.85
2022-09-14T08:11:30.375Z,17.88
2022-09-14T08:14:27.963Z,17.87
2022-09-14T08:17:24.491Z,17.92
2022-09-14T08:20:22.305Z,17.88
2022-09-14T08:23:19.924Z,17.98
2022-09-14T08:26:21.543Z,18.00
2022-09-14T08:29:19.260Z,18.03
2022-09-14T08:32:16.652Z,18.06
2022-09-14T08:35:13.717Z,18.12
2022-09-14T08:38:10.625Z,18.07
2022-09-14T08:41:30.879Z,18.11
2022-09-14T08:44:44.864Z,18.22
2022-09-14T08:47:42.046Z,18.28
2022-09-14T08:50:39.073Z,18.43
2022-09-14T08:53:39.322Z,18.45
2022-09-14T08:56:40.241Z,18.54
2022-09-14T08:59:53.436Z,18.56
2022-09-14T09:03:08.426Z,18.50
2022-09-14T09:06:18.707Z,18.58
2022-09-14T09:09:46.456Z,18.68
2022-09-14T09:12:55.365Z,18.63
2022-09-14T09:15:59.150Z,18.60
2022-09-14T09:19:00.327Z,18.87
2022-09-14T09:21:57.515Z,18.87
2022-09-14T09:24:55.165Z,18.92
2022-09-14T09:28:01.042Z,18.79
2022-09-14T09:31:05.340Z,19.04
2022-09-14T09:34:26.490Z,19.11
2022-09-14T09:37:23.943Z,19.23
2022-09-14T09:40:34.718Z,19.32
2022-09-14T09:43:49.056Z,19.38
2022-09-14T09:46:49.477Z,19.31
2022-09-14T09:49:46.906Z,19.07
2022-09-14T09:52:50.896Z,19.13
2022-09-14T09:55:48.960Z,19.15
2022-09-14T09:58:51.697Z,19.07
2022-09-14T10:01:48.681Z,19.31
2022-09-14T10:05:00.514Z,19.33
2022-09-14T10:08:09.361Z,19.53
2022-09-14T10:11:34.199Z,19.50
2022-09-14T10:14:36.663Z,19.50
2022-09-14T10:17:33.916Z,19.49
2022-09-14T10:20:30.652Z,19.50
2022-09-14T10:23:29.295Z,19.49
2022-09-14T10:26:27.181Z,19.57
2022-09-14T10:29:38.343Z,19.74
2022-09-14T10:32:35.972Z,19.68
2022-09-14T10:35:43.999Z,19.60
2022-09-14T10:38:46.110Z,19.63
2022-09-14T10:42:05.981Z,19.57
2022-09-14T10:45:20.936Z,19.45
2022-09-14T10:48:27.167Z,19.37
2022-09-14T10:51:46.343Z,19.38
2022-09-14T10:54:58.431Z,19.43
2022-09-14T10:58:07.826Z,19.50
2022-09-14T11:01:39.732Z,19.57
2022-09-14T11:04:49.159Z,19.65
2022-09-14T11:08:24.680Z,19.68
2022-09-14T11:11:42.935Z,19.65
2022-09-14T11:15:19.136Z,19.76
2022-09-14T11:18:41.747Z,19.68
2022-09-14T11:21:42.087Z,19.67
2022-09-14T11:24:46.276Z,19.86
2022-09-14T11:27:55.065Z,19.74
2022-09-14T11:30:55.904Z,19.74
2022-09-14T11:33:58.654Z,19.75
2022-09-14T11:36:58.988Z,19.70
2022-09-14T11:40:03.313Z,19.72
2022-09-14T11:43:06.312Z,19.58
2022-09-14T11:46:11.972Z,19.84
2022-09-14T11:49:18.791Z,19.73
2022-09-14T11:52:21.000Z,19.67
2022-09-14T11:55:18.231Z,19.70
2022-09-14T11:58:25.973Z,19.94
2022-09-14T12:01:41.533Z,20.13
2022-09-14T12:04:39.236Z,20.13
2022-09-14T12:07:39.715Z,20.03
2022-09-14T12:11:04.911Z,20.01
2022-09-14T12:14:23.395Z,19.75
2022-09-14T12:17:39.534Z,19.83
2022-09-14T12:20:37.679Z,20.19
2022-09-14T12:23:37.711Z,20.01
2022-09-14T12:26:35.123Z,20.10
2022-09-14T12:29:33.439Z,20.16
2022-09-14T12:32:40.892Z,20.14
2022-09-14T12:35:37.903Z,20.12
2022-09-14T12:38:38.019Z,20.18
2022-09-14T12:41:35.054Z,20.06
2022-09-14T12:44:41.507Z,20.05
2022-09-14T12:47:39.225Z,20.19
2022-09-14T12:50:35.827Z,20.17
2022-09-14T12:53:33.119Z,19.99
2022-09-14T12:56:42.288Z,19.98
2022-09-14T12:59:51.302Z,20.19
2022-09-14T13:03:30.066Z,20.09
2022-09-14T13:06:35.040Z,20.13
2022-09-14T13:09:32.114Z,20.31
2022-09-14T13:12:33.795Z,20.53
2022-09-14T13:15:39.509Z,20.66
2022-09-14T13:18:37.590Z,20.85
2022-09-14T13:21:34.984Z,20.94
2022-09-14T13:24:35.211Z,20.94
2022-09-14T13:27:36.138Z,20.76
2022-09-14T13:30:33.835Z,20.67
2022-09-14T13:33:31.083Z,20.54
2022-09-14T13:36:29.744Z,20.55
2022-09-14T13:39:35.234Z,20.52
2022-09-14T13:42:31.924Z,20.74
2022-09-14T13:45:28.819Z,20.77
2022-09-14T13:48:26.114Z,20.79
2022-09-14T13:51:26.235Z,20.64
2022-09-14T13:54:29.731Z,20.64
2022-09-14T13:57:26.823Z,20.56
2022-09-14T14:00:24.395Z,20.69
2022-09-14T14:03:29.020Z,20.77
2022-09-14T14:06:28.308Z,20.71
2022-09-14T14:09:26.064Z,20.91
2022-09-14T14:12:27.078Z,20.80
2022-09-14T14:15:24.008Z,20.64
2022-09-14T14:18:32.420Z,20.54
2022-09-14T14:21:32.084Z,20.76
2022-09-14T14:24:29.420Z,21.05
2022-09-14T14:27:38.365Z,21.15
2022-09-14T14:30:37.950Z,21.41
2022-09-14T14:33:36.464Z,21.59
2022-09-14T14:36:34.875Z,21.22
2022-09-14T14:39:32.617Z,21.24
2022-09-14T14:42:30.134Z,21.09
2022-09-14T14:45:27.235Z,21.15
2022-09-14T14:48:24.028Z,21.18
2022-09-14T14:51:21.818Z,21.12
2022-09-14T14:54:19.532Z,21.39
2022-09-14T14:57:17.432Z,21.37
2022-09-14T15:00:17.743Z,21.29
2022-09-14T15:03:19.160Z,21.58
2022-09-14T15:06:20.006Z,21.48
2022-09-14T15:09:25.221Z,21.43
2022-09-14T15:12:22.307Z,21.54
2022-09-14T15:15:21.791Z,21.46
2022-09-14T15:18:18.998Z,21.64
2022-09-14T15:21:16.068Z,21.65
2022-09-14T15:24:13.004Z,21.56
2022-09-14T15:27:10.152Z,21.38
2022-09-14T15:30:07.664Z,21.37
2022-09-14T15:33:05.153Z,21.40
2022-09-14T15:36:03.462Z,21.26
2022-09-14T15:39:00.815Z,21.29
2022-09-14T15:41:58.649Z,21.44
2022-09-14T15:44:56.117Z,21.35
2022-09-14T15:47:53.214Z,21.32
2022-09-14T15:50:50.191Z,21.45
2022-09-14T15:53:47.911Z,21.50
2022-09-14T15:56:52.383Z,21.32
2022-09-14T15:59:49.266Z,21.04
2022-09-14T16:02:49.495Z,20.90
2022-09-14T16:05:47.141Z,21.01
2022-09-14T16:08:43.923Z,20.98
2022-09-14T16:11:40.964Z,20.90
2022-09-14T16:14:38.365Z,21.07
2022-09-14T16:17:35.139Z,21.11
2022-09-14T16:20:32.440Z,21.22
2022-09-14T16:23:29.885Z,21.33
2022-09-14T16:26:29.522Z,21.30
2022-09-14T16:29:27.457Z,21.37
2022-09-14T16:32:23.977Z,21.45
2022-09-14T16:35:20.894Z,21.47
2022-09-14T16:38:18.316Z,21.46
2022-09-14T16:41:15.487Z,21.36
2022-09-14T16:44:19.383Z,21.42
2022-09-14T16:47:16.328Z,21.33
2022-09-14T16:50:13.478Z,21.28
2022-09-14T16:53:10.507Z,21.38
2022-09-14T16:56:09.898Z,21.28
2022-09-14T16:59:07.526Z,21.10
2022-09-14T17:02:05.324Z,20.90
2022-09-14T17:05:02.679Z,20.79
2022-09-14T17:08:00.451Z,20.79
2022-09-14T17:10:57.356Z,20.82
2022-09-14T17:13:54.398Z,20.62
2022-09-14T17:16:51.506Z,20.29
2022-09-14T17:19:48.997Z,20.04
2022-09-14T17:22:45.966Z,20.00
2022-09-14T17:25:42.906Z,20.12
2022-09-14T17:28:40.566Z,20.26
2022-09-14T17:31:40.703Z,20.50
2022-09-14T17:34:38.163Z,20.53
2022-09-14T17:37:35.051Z,20.48
2022-09-14T17:40:32.116Z,20.42
2022-09-14T17:43:28.813Z,20.26
2022-09-14T17:46:26.740Z,20.28
2022-09-14T17:49:24.229Z,20.62
2022-09-14T17:52:21.066Z,20.74
2022-09-14T17:55:17.986Z,20.77
2022-09-14T17:58:19.443Z,20.68
2022-09-14T18:01:19.564Z,20.49
2022-09-14T18:04:16.998Z,20.23
2022-09-14T18:07:14.463Z,20.12
2022-09-14T18:10:11.322Z,19.98
2022-09-14T18:13:08.609Z,19.88
2022-09-14T18:16:06.432Z,19.59
2022-09-14T18:19:03.965Z,19.41
2022-09-14T18:22:01.222Z,19.56
2022-09-14T18:24:58.088Z,19.46
2022-09-14T18:27:55.427Z,19.29
2022-09-14T18:31:06.413Z,19.26
2022-09-14T18:34:04.215Z,19.24
2022-09-14T18:37:01.273Z,19.30
2022-09-14T18:39:58.151Z,19.47
2022-09-14T18:42:55.044Z,19.67
2022-09-14T18:45:53.894Z,19.65
2022-09-14T18:48:54.853Z,19.80
2022-09-14T18:51:52.579Z,19.96
2022-09-14T18:54:50.156Z,20.16
2022-09-14T18:57:47.852Z,20.26
2022-09-14T19:00:45.988Z,20.24
2022-09-14T19:03:43.306Z,20.11
2022-09-14T19:06:41.730Z,20.00
2022-09-14T19:09:39.755Z,19.98
2022-09-14T19:12:37.070Z,19.99
2022-09-14T19:15:34.967Z,19.98
2022-09-14T19:18:32.260Z,20.01
2022-09-14T19:21:30.840Z,20.06
2022-09-14T19:24:30.905Z,20.12
2022-09-14T19:27:28.573Z,20.13
2022-09-14T19:30:26.417Z,20.16
2022-09-14T19:33:23.651Z,20.22
2022-09-14T19:36:22.214Z,20.15
2022-09-14T19:39:22.607Z,20.19
2022-09-14T19:42:23.873Z,20.16
2022-09-14T19:45:21.377Z,20.19
2022-09-14T19:48:18.735Z,20.22
2022-09-14T19:51:18.205Z,20.20
2022-09-14T19:54:15.293Z,20.20
2022-09-14T19:57:12.526Z,20.16
2022-09-14T20:00:16.287Z,20.15
2022-09-14T20:03:16.938Z,20.08
2022-09-14T20:06:23.608Z,19.97
2022-09-14T20:09:22.656Z,19.90
2022-09-14T20:12:20.369Z,19.97
2022-09-14T20:15:17.409Z,20.02
2022-09-14T20:18:14.566Z,19.74
2022-09-14T20:21:19.700Z,19.39
2022-09-14T20:24:20.076Z,19.10
2022-09-14T20:27:17.488Z,18.98
2022-09-14T20:30:14.515Z,18.96
2022-09-14T20:33:11.155Z,18.91
2022-09-14T20:36:11.071Z,18.93
2022-09-14T20:39:08.745Z,18.72
2022-09-14T20:42:06.594Z,18.60
2022-09-14T20:45:03.155Z,18.67
2022-09-14T20:48:00.293Z,18.58
2022-09-14T20:50:57.464Z,18.52
2022-09-14T20:53:56.139Z,18.48
2022-09-14T20:56:53.564Z,18.42
2022-09-14T20:59:50.638Z,18.42
2022-09-14T21:02:51.361Z,18.31
2022-09-14T21:05:48.513Z,18.27
2022-09-14T21:08:45.683Z,18.35
2022-09-14T21:11:45.842Z,18.54
2022-09-14T21:14:45.276Z,19.00
2022-09-14T21:17:42.348Z,19.20
2022-09-14T21:20:39.306Z,19.41
2022-09-14T21:23:36.430Z,19.48
2022-09-14T21:26:39.331Z,19.39
2022-09-14T21:29:39.529Z,19.34
2022-09-14T21:32:36.438Z,19.35
2022-09-14T21:35:33.805Z,19.32
2022-09-14T21:38:31.531Z,19.28
2022-09-14T21:41:30.169Z,19.11
2022-09-14T21:44:32.123Z,18.85
2022-09-14T21:47:29.475Z,18.33
2022-09-14T21:50:26.353Z,18.13
2022-09-14T21:53:23.355Z,18.21
2022-09-14T21:56:21.390Z,18.28
2022-09-14T21:59:20.266Z,18.12
2022-09-14T22:02:17.319Z,17.96
2022-09-14T22:05:14.300Z,17.69
2022-09-14T22:08:11.702Z,17.47
2022-09-14T22:11:15.112Z,17.44
2022-09-14T22:14:14.789Z,17.41
2022-09-14T22:17:12.474Z,17.31
2022-09-14T22:20:10.933Z,17.38
2022-09-14T22:23:08.575Z,17.54
2022-09-14T22:26:07.452Z,17.69
2022-09-14T22:29:04.967Z,17.64
2022-09-14T22:32:02.522Z,17.77
2022-09-14T22:34:59.637Z,17.92
2022-09-14T22:37:56.620Z,17.74
2022-09-14T22:40:57.486Z,17.87
2022-09-14T22:43:54.739Z,17.75
2022-09-14T22:46:51.463Z,17.59
2022-09-14T22:49:48.678Z,17.53
2022-09-14T22:52:45.421Z,17.53
2022-09-14T22:55:42.705Z,17.70
2022-09-14T22:58:39.360Z,17.69
2022-09-14T23:01:39.018Z,17.73
2022-09-14T23:04:36.639Z,17.71
2022-09-14T23:07:33.715Z,17.81
2022-09-14T23:10:30.656Z,17.84
2022-09-14T23:13:27.691Z,17.97
2022-09-14T23:16:26.386Z,18.07
2022-09-14T23:19:23.844Z,18.25
2022-09-14T23:22:21.297Z,18.23
2022-09-14T23:25:18.723Z,18.43
2022-09-14T23:28:15.512Z,18.53
2022-09-14T23:31:12.558Z,18.55
2022-09-14T23:34:09.744Z,18.56
2022-09-14T23:37:06.712Z,18.60
2022-09-14T23:40:03.965Z,18.56
2022-09-14T23:43:01.581Z,18.43
2022-09-14T23:45:58.795Z,18.22
2022-09-14T23:48:56.782Z,18.10
2022-09-14T23:51:54.565Z,17.88
2022-09-14T23:54:51.632Z,17.88
2022-09-14T23:57:48.740Z,17.99
